Time;durP1;ratioP1;P1;durP2;ratioP2;P2;SDS_P1;SDS_P2;PMS_P1;PMS_P2;Temp;Humidity;BMP_temperature;BMP_pressure;BME280_temperature;BME280_humidity;BME280_pressure;Samples;Min_cycle;Max_cycle;Signal;HPM_P1;HPM_P2
2023/07/07 00:00:07;;;;;;;9.57;3.07;;;;;;;14.29;91.64;101572.41;5013047;28;20959;-73
2023/07/07 00:02:34;;;;;;;6.73;2.80;;;;;;;14.25;91.90;101585.81;5012951;28;20975;-72
2023/07/07 00:05:01;;;;;;;7.17;2.73;;;;;;;14.25;91.63;101585.00;5013273;28;20444;-73
2023/07/07 00:07:29;;;;;;;5.70;2.40;;;;;;;14.27;91.11;101577.38;5013280;28;20443;-73
2023/07/07 00:09:55;;;;;;;9.13;2.90;;;;;;;14.18;91.00;101574.53;5012869;28;20506;-73
2023/07/07 00:12:22;;;;;;;9.60;2.73;;;;;;;14.15;91.59;101580.56;5012856;28;20479;-73
2023/07/07 00:14:49;;;;;;;6.50;2.90;;;;;;;14.06;92.24;101588.63;5013204;28;20574;-73
2023/07/07 00:17:16;;;;;;;6.10;2.43;;;;;;;14.02;92.99;101573.97;5013121;28;20876;-73
2023/07/07 00:19:43;;;;;;;6.60;2.33;;;;;;;13.99;93.61;101581.94;5013083;28;20514;-73
2023/07/07 00:22:10;;;;;;;7.10;3.00;;;;;;;14.01;93.10;101580.53;5013071;28;20535;-73
2023/07/07 00:24:38;;;;;;;8.03;3.40;;;;;;;14.00;92.59;101573.50;5013122;28;20859;-73
2023/07/07 00:27:06;;;;;;;9.43;3.10;;;;;;;13.96;93.17;101577.13;5013069;28;20452;-73
2023/07/07 00:29:32;;;;;;;8.27;3.03;;;;;;;13.99;90.44;101573.75;5012720;28;21006;-73
2023/07/07 00:31:59;;;;;;;6.47;2.67;;;;;;;13.93;88.14;101581.22;5012933;28;20462;-73
2023/07/07 00:34:26;;;;;;;6.97;3.13;;;;;;;13.86;88.43;101573.47;5012898;28;20497;-72
2023/07/07 00:36:53;;;;;;;7.07;2.27;;;;;;;13.81;88.79;101580.88;5012959;28;20545;-72
2023/07/07 00:39:19;;;;;;;8.53;2.63;;;;;;;13.74;89.09;101578.56;5016016;28;20803;-71
2023/07/07 00:41:48;;;;;;;7.27;2.50;;;;;;;13.69;90.38;101581.38;5016703;28;20875;-73
2023/07/07 00:44:14;;;;;;;7.57;2.83;;;;;;;13.62;90.13;101580.94;5016506;28;20468;-72
2023/07/07 00:46:41;;;;;;;7.10;2.83;;;;;;;13.61;89.79;101585.56;5016547;28;20535;-73
2023/07/07 00:49:11;;;;;;;7.87;3.70;;;;;;;13.59;91.57;101586.97;5016175;28;20946;-72
2023/07/07 00:51:41;;;;;;;6.40;2.67;;;;;;;13.53;93.16;101585.44;5016607;28;20796;-72
2023/07/07 00:54:14;;;;;;;7.23;2.93;;;;;;;13.56;93.52;101591.09;5016397;28;20500;-73
2023/07/07 00:56:45;;;;;;;8.20;3.00;;;;;;;13.45;94.31;101594.25;5016122;28;20955;-73
2023/07/07 00:59:18;;;;;;;7.50;2.83;;;;;;;13.44;94.68;101592.66;5016158;28;20511;-72
2023/07/07 01:01:45;;;;;;;11.87;3.47;;;;;;;13.45;94.63;101603.22;5016083;28;20511;-73
2023/07/07 01:04:14;;;;;;;7.20;2.60;;;;;;;13.49;94.28;101604.25;5016159;28;20506;-73
2023/07/07 01:06:48;;;;;;;8.60;3.33;;;;;;;13.58;92.92;101609.84;5016193;28;20448;-72
2023/07/07 01:09:15;;;;;;;8.43;3.77;;;;;;;13.56;93.47;101606.63;5016135;28;20420;-73
2023/07/07 01:11:42;;;;;;;7.37;2.80;;;;;;;13.51;93.79;101604.78;5016119;28;20520;-73
2023/07/07 01:14:16;;;;;;;7.63;2.67;;;;;;;13.53;94.06;101612.66;5015978;28;20543;-73
2023/07/07 01:16:53;;;;;;;8.10;3.40;;;;;;;13.45;94.66;101613.31;5015627;28;21077;-74
2023/07/07 01:19:45;;;;;;;6.33;2.53;;;;;;;13.45;94.95;101607.88;5016013;28;20424;-72
2023/07/07 01:22:35;;;;;;;10.73;4.00;;;;;;;13.48;94.05;101602.66;5013449;28;20476;-73
2023/07/07 01:25:17;;;;;;;7.83;3.37;;;;;;;13.42;94.57;101605.75;5015953;28;20854;-73
2023/07/07 01:28:20;;;;;;;7.30;3.13;;;;;;;13.38;94.90;101606.34;5015938;28;20420;-74
2023/07/07 01:30:51;;;;;;;7.73;4.00;;;;;;;13.41;95.21;101599.47;5015353;28;20524;-73
2023/07/07 01:33:23;;;;;;;11.97;3.60;;;;;;;13.37;95.32;101604.72;5015324;28;20982;-73
2023/07/07 01:35:50;;;;;;;8.53;3.20;;;;;;;13.33;95.39;101609.13;5015625;28;20472;-73
2023/07/07 01:38:33;;;;;;;7.23;2.80;;;;;;;13.35;94.94;101606.91;5015663;28;20849;-73
2023/07/07 01:41:18;;;;;;;8.77;3.00;;;;;;;13.32;95.03;101602.06;5015596;28;20523;-73
2023/07/07 01:43:50;;;;;;;8.53;3.43;;;;;;;13.29;95.29;101613.56;5015495;28;20551;-73
2023/07/07 01:46:28;;;;;;;9.33;2.57;;;;;;;13.29;95.17;101610.03;5015623;28;20456;-73
2023/07/07 01:49:02;;;;;;;7.33;3.07;;;;;;;13.31;95.38;101605.09;5015484;28;20432;-73
2023/07/07 01:51:36;;;;;;;9.30;3.33;;;;;;;13.30;94.89;101603.47;5014901;28;20502;-72
2023/07/07 01:54:06;;;;;;;9.67;3.30;;;;;;;13.28;93.92;101606.50;5015043;28;20460;-73
2023/07/07 01:56:33;;;;;;;9.20;4.00;;;;;;;13.21;91.03;101600.56;5015263;28;20555;-73
2023/07/07 01:59:01;;;;;;;7.20;3.13;;;;;;;13.13;91.17;101602.03;5015450;28;20490;-73
2023/07/07 02:01:30;;;;;;;8.93;2.97;;;;;;;13.06;90.60;101607.03;5015592;28;20519;-73
2023/07/07 02:03:57;;;;;;;8.43;3.60;;;;;;;12.99;91.84;101609.28;5015141;28;20889;-72
2023/07/07 02:06:23;;;;;;;9.57;3.70;;;;;;;13.00;92.45;101604.66;5014942;28;20875;-72
2023/07/07 02:08:50;;;;;;;8.53;3.50;;;;;;;13.00;93.32;101604.66;5015063;28;20448;-73
2023/07/07 02:11:16;;;;;;;11.03;3.50;;;;;;;12.96;94.32;101609.88;5014898;28;20925;-73
2023/07/07 02:13:43;;;;;;;12.50;3.73;;;;;;;12.91;94.80;101606.41;5014725;28;21010;-73
2023/07/07 02:16:10;;;;;;;7.73;3.20;;;;;;;12.92;95.20;101605.31;5014807;28;20483;-73
2023/07/07 02:18:38;;;;;;;8.37;4.03;;;;;;;12.91;95.73;101601.78;5014735;28;21022;-73
2023/07/07 02:21:05;;;;;;;7.57;3.17;;;;;;;12.90;95.72;101613.75;5015033;28;20859;-73
2023/07/07 02:23:32;;;;;;;10.00;3.53;;;;;;;12.96;95.20;101604.44;5014604;28;20464;-73
2023/07/07 02:25:59;;;;;;;8.30;3.33;;;;;;;12.96;94.50;101609.88;5014550;28;20446;-73
2023/07/07 02:28:26;;;;;;;7.80;2.93;;;;;;;12.93;94.99;101610.47;5014790;28;20442;-72
2023/07/07 02:30:53;;;;;;;7.00;2.77;;;;;;;12.92;95.42;101618.91;5014611;28;20538;-72
2023/07/07 02:33:31;;;;;;;7.37;2.80;;;;;;;12.88;95.47;101619.50;5014487;28;20464;-73
2023/07/07 02:36:01;;;;;;;8.77;3.07;;;;;;;12.89;95.42;101620.31;5014414;28;20468;-73
2023/07/07 02:38:28;;;;;;;7.90;2.63;;;;;;;12.84;95.67;101620.38;5014253;28;20888;-72
2023/07/07 02:40:55;;;;;;;7.63;3.60;;;;;;;12.88;95.51;101619.50;5014081;28;20828;-72
2023/07/07 02:43:22;;;;;;;7.13;3.30;;;;;;;12.89;95.54;101620.31;5014100;28;20547;-72
2023/07/07 02:45:48;;;;;;;6.73;2.80;;;;;;;12.81;96.52;101619.03;5014031;28;20479;-72
2023/07/07 02:48:15;;;;;;;7.20;3.17;;;;;;;12.81;96.54;101626.38;5014358;28;20531;-72
2023/07/07 02:50:41;;;;;;;7.10;3.27;;;;;;;12.86;95.06;101626.31;5014293;28;20471;-73
2023/07/07 02:53:09;;;;;;;10.47;2.97;;;;;;;12.76;95.70;101627.25;5013862;28;20495;-72
2023/07/07 02:55:36;;;;;;;8.20;3.40;;;;;;;12.81;95.94;101629.91;5014183;28;20505;-72
2023/07/07 02:58:03;;;;;;;7.60;3.27;;;;;;;12.78;96.12;101616.88;5014141;28;20859;-72
2023/07/07 03:00:29;;;;;;;8.40;3.60;;;;;;;12.86;95.70;101624.41;5014256;28;20465;-72
2023/07/07 03:02:56;;;;;;;7.33;3.13;;;;;;;12.88;95.38;101624.09;5013169;28;20468;-72
2023/07/07 03:05:23;;;;;;;7.93;3.43;;;;;;;12.92;94.63;101629.78;5013719;28;20472;-72
2023/07/07 03:07:48;;;;;;;8.33;3.70;;;;;;;12.87;94.61;101623.31;5013993;28;20479;-73
2023/07/07 03:10:16;;;;;;;8.13;3.47;;;;;;;12.85;95.11;101625.50;5013702;28;20479;-73
2023/07/07 03:12:43;;;;;;;17.03;3.60;;;;;;;12.76;95.44;101621.81;5013545;28;20263;-73
2023/07/07 03:15:10;;;;;;;8.03;3.50;;;;;;;12.74;95.61;101624.00;5013813;28;20832;-73
2023/07/07 03:17:39;;;;;;;8.70;3.10;;;;;;;12.68;95.99;101633.31;5013693;28;20519;-73
2023/07/07 03:20:09;;;;;;;7.93;3.30;;;;;;;12.62;96.65;101626.34;5013821;28;20550;-73
2023/07/07 03:22:36;;;;;;;8.20;3.20;;;;;;;12.65;96.75;101630.38;5013443;28;20463;-73
2023/07/07 03:25:03;;;;;;;9.03;3.27;;;;;;;12.66;96.31;101632.81;5013656;28;20452;-73
2023/07/07 03:27:31;;;;;;;7.50;2.80;;;;;;;12.67;96.28;101629.00;5013599;28;20482;-74
2023/07/07 03:29:58;;;;;;;10.03;3.10;;;;;;;12.67;96.69;101623.56;5014689;28;20488;-74
2023/07/07 03:32:27;;;;;;;10.23;3.50;;;;;;;12.66;96.73;101630.09;5013603;28;20472;-71
2023/07/07 03:34:53;;;;;;;7.23;2.87;;;;;;;12.76;96.67;101631.88;5013527;28;20543;-72
2023/07/07 03:37:20;;;;;;;8.43;3.53;;;;;;;12.76;95.44;101626.44;5013532;28;20488;-76
2023/07/07 03:39:47;;;;;;;6.60;2.80;;;;;;;12.80;93.69;101633.75;5013514;28;20447;-75
2023/07/07 03:42:13;;;;;;;10.17;3.90;;;;;;;12.75;91.99;101636.53;5013143;28;20464;-74
2023/07/07 03:44:41;;;;;;;7.93;3.30;;;;;;;12.74;91.15;101634.88;5013421;28;20535;-75
2023/07/07 03:47:08;;;;;;;8.43;3.60;;;;;;;12.70;91.45;101638.47;5013127;28;20533;-75
2023/07/07 03:49:34;;;;;;;7.83;3.67;;;;;;;12.66;91.99;101640.13;5013431;28;20483;-74
2023/07/07 03:52:01;;;;;;;11.37;4.77;;;;;;;12.70;93.62;101647.44;5012990;28;20536;-75
2023/07/07 03:54:27;;;;;;;9.43;3.97;;;;;;;12.72;94.90;101647.97;5013061;28;20961;-74
2023/07/07 03:56:54;;;;;;;8.23;3.33;;;;;;;12.76;95.75;101638.13;5013220;28;20578;-74
2023/07/07 03:59:21;;;;;;;10.23;3.60;;;;;;;12.73;96.44;101644.13;5013338;28;20468;-75
2023/07/07 04:01:49;;;;;;;9.40;3.90;;;;;;;12.85;96.84;101650.00;5013003;28;20506;-75
2023/07/07 04:04:15;;;;;;;7.60;3.43;;;;;;;12.90;97.07;101637.44;5012928;28;20468;-75
2023/07/07 04:06:42;;;;;;;11.30;3.70;;;;;;;12.87;97.52;101652.41;5013226;28;20519;-74
2023/07/07 04:09:09;;;;;;;9.90;3.93;;;;;;;12.93;97.78;101650.47;5012919;28;20962;-75
2023/07/07 04:11:35;;;;;;;8.73;3.90;;;;;;;13.02;97.70;101654.97;5013204;28;20527;-74
2023/07/07 04:14:02;;;;;;;8.30;3.67;;;;;;;13.05;98.04;101656.28;5015789;28;20463;-74
2023/07/07 04:16:28;;;;;;;7.20;3.30;;;;;;;13.12;98.35;101651.28;5017003;28;20583;-75
2023/07/07 04:18:57;;;;;;;9.60;3.63;;;;;;;13.18;98.39;101650.13;5016763;28;20475;-75
2023/07/07 04:21:25;;;;;;;7.23;3.27;;;;;;;13.24;98.46;101654.44;5017016;28;20446;-75
2023/07/07 04:23:54;;;;;;;10.60;4.07;;;;;;;13.31;98.56;101654.88;5016637;28;21017;-75
2023/07/07 04:26:22;;;;;;;6.67;3.20;;;;;;;13.37;98.84;101653.72;5016692;28;20443;-74
2023/07/07 04:28:51;;;;;;;8.80;3.30;;;;;;;13.35;99.45;101653.19;5016832;28;20454;-74
2023/07/07 04:31:18;;;;;;;7.50;3.53;;;;;;;13.47;99.58;101650.03;5016538;28;20455;-74
2023/07/07 04:33:45;;;;;;;7.80;2.87;;;;;;;13.56;99.92;101661.06;5016401;28;20488;-74
2023/07/07 04:36:13;;;;;;;7.10;2.93;;;;;;;13.65;100.00;101661.22;5016749;28;20519;-74
2023/07/07 04:38:40;;;;;;;9.40;3.83;;;;;;;13.74;100.00;101665.69;5016776;28;20444;-73
2023/07/07 04:41:09;;;;;;;8.93;4.03;;;;;;;13.79;100.00;101670.25;5016327;28;20535;-74
2023/07/07 04:43:38;;;;;;;8.30;3.43;;;;;;;13.89;100.00;101672.81;5016340;28;20499;-74
2023/07/07 04:46:06;;;;;;;11.10;3.77;;;;;;;13.95;100.00;101677.09;5016353;28;20442;-74
2023/07/07 04:48:33;;;;;;;8.30;3.33;;;;;;;14.05;100.00;101685.09;5016353;28;20471;-73
2023/07/07 04:51:00;;;;;;;6.67;3.30;;;;;;;14.17;100.00;101679.19;5016257;28;20861;-74
2023/07/07 04:53:29;;;;;;;8.43;3.33;;;;;;;14.27;100.00;101683.66;5016186;28;20476;-73
2023/07/07 04:55:56;;;;;;;11.30;3.37;;;;;;;14.33;100.00;101680.53;5016098;28;20562;-72
2023/07/07 04:58:25;;;;;;;9.10;4.03;;;;;;;14.44;100.00;101685.81;5016086;28;20447;-73
2023/07/07 05:00:52;;;;;;;8.40;3.27;;;;;;;14.57;100.00;101682.34;5016070;28;20484;-72
2023/07/07 05:03:19;;;;;;;7.43;3.67;;;;;;;14.69;100.00;101693.53;5015738;28;20927;-72
2023/07/07 05:05:45;;;;;;;10.33;4.03;;;;;;;14.79;100.00;101685.19;5016007;28;20877;-73
2023/07/07 05:08:12;;;;;;;8.53;3.90;;;;;;;14.89;100.00;101679.53;5016037;28;20479;-73
2023/07/07 05:10:40;;;;;;;12.63;3.63;;;;;;;15.01;100.00;101684.50;5015960;28;20526;-73
2023/07/07 05:13:06;;;;;;;9.10;3.23;;;;;;;15.14;100.00;101691.84;5015834;28;20463;-73
2023/07/07 05:15:33;;;;;;;10.63;3.83;;;;;;;15.26;100.00;101687.78;5015804;28;20483;-73
2023/07/07 05:18:00;;;;;;;9.83;4.60;;;;;;;15.38;100.00;101685.34;5015743;28;20566;-74
2023/07/07 05:20:26;;;;;;;7.97;3.10;;;;;;;15.47;100.00;101690.91;5015973;28;20536;-74
2023/07/07 05:22:53;;;;;;;8.77;3.47;;;;;;;15.54;100.00;101688.56;5015722;28;20470;-74
2023/07/07 05:25:19;;;;;;;8.70;3.47;;;;;;;15.64;100.00;101691.88;5014917;28;20450;-73
2023/07/07 05:27:47;;;;;;;8.57;3.70;;;;;;;15.79;100.00;101701.66;5015481;28;20589;-74
2023/07/07 05:30:14;;;;;;;7.30;3.00;;;;;;;15.92;100.00;101693.72;5015592;28;20517;-73
2023/07/07 05:32:41;;;;;;;9.30;3.50;;;;;;;16.02;100.00;101702.47;5015383;28;20865;-74
2023/07/07 05:35:08;;;;;;;7.27;3.13;;;;;;;16.18;98.50;101707.59;5015644;28;20531;-73
2023/07/07 05:37:35;;;;;;;14.23;3.20;;;;;;;16.30;95.90;101703.16;5015543;28;20502;-74
2023/07/07 05:40:01;;;;;;;7.03;2.63;;;;;;;16.46;91.99;101695.34;5015257;28;20444;-74
2023/07/07 05:42:29;;;;;;;9.40;2.63;;;;;;;16.67;86.31;101706.56;5015221;28;20545;-75
2023/07/07 05:44:57;;;;;;;6.50;2.00;;;;;;;16.93;80.15;101712.19;5015560;28;20483;-74
2023/07/07 05:47:24;;;;;;;6.63;1.60;;;;;;;17.15;79.01;101720.31;5015458;28;20879;-73
2023/07/07 05:49:53;;;;;;;5.43;1.97;;;;;;;17.35;75.56;101708.00;5015077;28;20443;-74
2023/07/07 05:52:20;;;;;;;5.97;2.20;;;;;;;17.60;72.53;101727.50;5015267;28;20457;-73
2023/07/07 05:54:46;;;;;;;19.87;1.93;;;;;;;17.88;70.33;101723.38;5015266;28;20467;-74
2023/07/07 05:57:13;;;;;;;6.27;1.90;;;;;;;18.13;66.24;101726.41;5015274;28;20574;-75
2023/07/07 05:59:39;;;;;;;10.17;2.17;;;;;;;18.32;67.11;101726.06;5015216;28;20452;-74
2023/07/07 06:02:10;;;;;;;5.17;1.63;;;;;;;18.49;64.32;101738.94;5015459;28;20863;-75
2023/07/07 06:04:36;;;;;;;6.03;1.60;;;;;;;18.58;66.68;101737.00;5015490;28;20436;-75
2023/07/07 06:07:03;;;;;;;5.50;1.53;;;;;;;18.67;66.69;101737.78;5017143;28;20472;-75
2023/07/07 06:09:30;;;;;;;6.00;1.83;;;;;;;18.75;66.19;101738.91;5015081;28;20444;-76
2023/07/07 06:11:56;;;;;;;4.87;1.30;;;;;;;18.80;65.47;101741.47;5015153;28;20476;-74
2023/07/07 06:14:23;;;;;;;5.23;1.53;;;;;;;18.92;64.72;101740.78;5014989;28;20990;-76
2023/07/07 06:16:50;;;;;;;5.80;1.60;;;;;;;18.96;66.70;101739.00;5014913;28;20488;-74
2023/07/07 06:19:18;;;;;;;5.60;1.40;;;;;;;19.00;66.84;101732.53;5014564;28;20479;-74
2023/07/07 06:21:44;;;;;;;5.27;1.53;;;;;;;19.09;64.43;101743.47;5014773;28;20472;-73
2023/07/07 06:24:11;;;;;;;6.33;1.73;;;;;;;19.20;63.60;101744.69;5014666;28;20884;-73
2023/07/07 06:26:38;;;;;;;5.57;1.50;;;;;;;19.33;62.66;101738.16;5014705;28;20516;-73
2023/07/07 06:29:04;;;;;;;7.23;1.30;;;;;;;19.42;63.39;101743.59;5014424;28;20970;-75
2023/07/07 06:31:31;;;;;;;4.93;1.23;;;;;;;19.47;63.81;101750.84;5014200;28;20525;-73
2023/07/07 06:33:57;;;;;;;5.23;1.10;;;;;;;19.67;60.09;101747.38;5014417;28;20482;-73
2023/07/07 06:36:25;;;;;;;5.50;1.60;;;;;;;19.89;57.60;101749.78;5014065;28;20542;-73
2023/07/07 06:38:52;;;;;;;5.00;1.50;;;;;;;20.08;58.37;101754.00;5014534;28;20447;-73
2023/07/07 06:41:22;;;;;;;5.63;1.67;;;;;;;20.16;59.98;101744.88;5014542;28;20444;-74
2023/07/07 06:43:48;;;;;;;5.20;1.40;;;;;;;20.23;57.54;101755.31;5014322;28;20546;-75
2023/07/07 06:46:15;;;;;;;5.37;1.27;;;;;;;20.36;57.81;101755.03;5014091;28;20881;-75
2023/07/07 06:48:42;;;;;;;5.83;1.33;;;;;;;20.55;55.43;101753.75;5014322;28;20448;-75
2023/07/07 06:51:10;;;;;;;5.40;1.40;;;;;;;20.68;55.30;101755.38;5014272;28;20449;-75
2023/07/07 06:53:37;;;;;;;5.00;1.57;;;;;;;20.71;56.69;101757.44;5014220;28;20526;-75
2023/07/07 06:56:05;;;;;;;4.60;1.37;;;;;;;20.74;57.89;101754.00;5014156;28;20559;-75
2023/07/07 06:58:33;;;;;;;5.20;1.50;;;;;;;20.83;53.98;101760.22;5014086;28;20580;-75
2023/07/07 07:00:59;;;;;;;5.37;1.43;;;;;;;20.88;56.17;101751.72;5013844;28;20543;-75
2023/07/07 07:03:27;;;;;;;4.60;1.40;;;;;;;20.90;56.27;101765.97;5013783;28;20480;-75
2023/07/07 07:05:54;;;;;;;13.13;2.40;;;;;;;20.97;55.24;101765.41;5013958;28;20503;-75
2023/07/07 07:08:21;;;;;;;8.73;2.00;;;;;;;21.11;55.40;101765.06;5013995;28;20471;-75
2023/07/07 07:10:49;;;;;;;6.00;1.70;;;;;;;21.22;55.24;101770.94;5013907;28;20627;-75
2023/07/07 07:13:16;;;;;;;4.87;1.30;;;;;;;21.21;54.72;101767.38;5013898;28;20826;-75
2023/07/07 07:15:42;;;;;;;5.70;1.40;;;;;;;21.27;53.08;101777.00;5013815;28;20484;-74
2023/07/07 07:18:09;;;;;;;4.30;1.07;;;;;;;21.45;52.20;101769.34;5013690;28;20523;-75
2023/07/07 07:20:36;;;;;;;4.60;1.30;;;;;;;21.57;51.75;101777.59;5013761;28;20528;-75
2023/07/07 07:23:02;;;;;;;4.50;1.17;;;;;;;21.69;50.34;101765.72;5013687;28;20482;-74
2023/07/07 07:25:29;;;;;;;5.43;1.50;;;;;;;21.82;49.58;101772.03;5013397;28;20448;-74
2023/07/07 07:27:57;;;;;;;6.70;1.43;;;;;;;21.94;50.17;101760.16;5013657;28;20442;-74
2023/07/07 07:30:24;;;;;;;4.83;1.30;;;;;;;22.02;50.68;101767.50;5013439;28;20467;-74
2023/07/07 07:32:50;;;;;;;6.43;1.20;;;;;;;22.07;48.19;101772.78;5014774;28;20499;-73
2023/07/07 07:35:17;;;;;;;9.60;1.43;;;;;;;22.01;50.54;101763.16;5013577;28;20479;-71
2023/07/07 07:37:43;;;;;;;4.57;1.13;;;;;;;22.03;51.33;101755.31;5013461;28;20494;-75
2023/07/07 07:40:10;;;;;;;5.10;1.40;;;;;;;22.04;51.81;101757.69;5013202;28;20443;-75
2023/07/07 07:42:37;;;;;;;4.60;1.07;;;;;;;22.07;52.24;101750.69;5013617;28;20551;-74
2023/07/07 07:45:07;;;;;;;6.87;1.60;;;;;;;22.16;47.74;101759.66;5013107;28;20993;-73
2023/07/07 07:47:34;;;;;;;7.30;1.60;;;;;;;22.28;48.95;101762.38;5012928;28;20432;-75
2023/07/07 07:50:01;;;;;;;11.33;1.27;;;;;;;22.39;47.78;101762.66;5013353;28;20535;-74
2023/07/07 07:52:28;;;;;;;4.80;1.23;;;;;;;22.41;47.84;101761.16;5013171;28;20546;-72
2023/07/07 07:54:54;;;;;;;5.03;1.53;;;;;;;22.37;51.38;101768.53;5013048;28;20452;-72
2023/07/07 07:57:21;;;;;;;5.23;1.30;;;;;;;22.46;52.88;101767.59;5013031;28;20483;-74
2023/07/07 07:59:49;;;;;;;7.03;1.60;;;;;;;22.53;48.54;101767.75;5013250;28;20892;-73
2023/07/07 08:02:17;;;;;;;5.50;1.67;;;;;;;22.62;48.35;101771.16;5012968;28;20471;-73
2023/07/07 08:04:44;;;;;;;5.50;1.57;;;;;;;22.61;48.13;101764.03;5013298;28;20436;-74
2023/07/07 08:07:11;;;;;;;5.33;1.23;;;;;;;22.64;47.46;101771.63;5013231;28;20869;-73
2023/07/07 08:09:37;;;;;;;5.17;1.50;;;;;;;22.68;49.10;101780.81;5013248;28;20854;-73
2023/07/07 08:12:04;;;;;;;4.77;1.20;;;;;;;22.77;48.54;101773.16;5013162;28;20439;-73
2023/07/07 08:14:33;;;;;;;12.10;1.83;;;;;;;22.83;49.55;101781.97;5013198;28;20480;-73
2023/07/07 08:17:04;;;;;;;6.60;1.37;;;;;;;22.77;47.23;101781.44;5013128;28;20865;-73
2023/07/07 08:19:35;;;;;;;4.83;1.10;;;;;;;22.84;46.88;101767.81;5013179;28;20776;-73
2023/07/07 08:22:03;;;;;;;5.60;1.33;;;;;;;22.91;44.48;101778.28;5013104;28;20433;-73
2023/07/07 08:24:30;;;;;;;4.87;1.10;;;;;;;22.96;45.41;101777.19;5013089;28;20949;-73
2023/07/07 08:26:57;;;;;;;6.97;1.23;;;;;;;23.02;47.21;101779.34;5013031;28;20456;-72
2023/07/07 08:29:23;;;;;;;5.20;1.07;;;;;;;23.06;46.76;101782.19;5012703;28;21014;-72
2023/07/07 08:31:50;;;;;;;5.43;1.37;;;;;;;23.16;43.85;101774.16;5012665;28;20456;-74
2023/07/07 08:34:17;;;;;;;5.03;0.80;;;;;;;23.19;44.06;101769.88;5012960;28;20518;-74
2023/07/07 08:36:46;;;;;;;5.13;1.20;;;;;;;23.21;45.78;101770.34;5012549;28;20440;-74
2023/07/07 08:39:15;;;;;;;6.30;1.30;;;;;;;23.23;46.15;101770.75;5013026;28;20454;-73
2023/07/07 08:41:47;;;;;;;4.60;1.07;;;;;;;23.22;41.88;101774.69;5012928;28;20448;-72
2023/07/07 08:44:17;;;;;;;4.60;1.10;;;;;;;23.30;42.00;101775.66;5012846;28;20460;-73
2023/07/07 08:46:59;;;;;;;4.77;0.83;;;;;;;23.41;43.07;101785.81;5012889;28;20463;-73
2023/07/07 08:49:32;;;;;;;5.10;1.27;;;;;;;23.52;42.49;101782.50;5012920;28;20523;-72
2023/07/07 08:52:07;;;;;;;4.07;0.73;;;;;;;23.59;43.06;101786.22;5012534;28;20443;-73
2023/07/07 08:54:41;;;;;;;4.33;0.83;;;;;;;23.66;44.29;101780.09;5012839;28;20435;-73
2023/07/07 08:57:11;;;;;;;4.83;0.97;;;;;;;23.75;42.95;101783.44;5012774;28;20837;-73
2023/07/07 08:59:48;;;;;;;5.90;1.40;;;;;;;23.73;43.52;101774.72;5012816;28;20450;-73
2023/07/07 09:02:31;;;;;;;4.73;0.90;;;;;;;23.74;44.32;101775.53;5016344;28;20506;-74
2023/07/07 09:05:06;;;;;;;4.40;1.00;;;;;;;23.73;44.98;101774.72;5015992;28;20427;-73
2023/07/07 09:07:57;;;;;;;4.37;0.93;;;;;;;23.79;44.82;101778.78;5015896;28;20911;-73
2023/07/07 09:10:38;;;;;;;11.53;1.23;;;;;;;23.87;43.30;101780.56;5016204;28;20439;-73
2023/07/07 09:13:25;;;;;;;4.83;1.17;;;;;;;24.05;41.79;101782.91;5016042;28;20460;-73
2023/07/07 09:16:08;;;;;;;4.30;1.00;;;;;;;24.12;41.50;101780.25;5015742;28;20428;-73
2023/07/07 09:18:38;;;;;;;4.20;0.70;;;;;;;24.13;43.55;101779.91;5015644;28;21017;-73
2023/07/07 09:21:13;;;;;;;4.87;0.93;;;;;;;24.23;40.85;101786.03;5015957;28;20432;-73
2023/07/07 09:23:42;;;;;;;4.87;1.30;;;;;;;24.28;40.27;101771.88;5015862;28;20525;-73
2023/07/07 09:26:16;;;;;;;4.17;0.73;;;;;;;24.25;41.47;101775.38;5015875;28;20542;-73
2023/07/07 09:28:48;;;;;;;4.53;1.10;;;;;;;24.28;40.50;101782.97;5015487;28;20515;-73
2023/07/07 09:31:26;;;;;;;4.60;1.13;;;;;;;24.38;41.30;101785.97;5016826;28;20511;-73
2023/07/07 09:33:54;;;;;;;4.33;0.80;;;;;;;24.43;40.15;101782.09;5015350;28;20847;-73
2023/07/07 09:36:26;;;;;;;4.53;1.10;;;;;;;24.49;42.15;101771.53;5015680;28;20465;-73
2023/07/07 09:39:07;;;;;;;4.80;1.00;;;;;;;24.56;39.62;101777.19;5015562;28;20475;-73
2023/07/07 09:41:45;;;;;;;5.23;1.13;;;;;;;24.62;40.40;101779.31;5015584;28;20802;-73
2023/07/07 09:44:36;;;;;;;4.30;0.90;;;;;;;24.74;42.15;101778.31;5015210;28;20504;-73
2023/07/07 09:47:13;;;;;;;4.70;0.90;;;;;;;24.85;39.44;101770.19;5015178;28;20441;-73
2023/07/07 09:49:46;;;;;;;4.73;1.13;;;;;;;25.00;39.61;101771.22;5015158;28;20455;-72
2023/07/07 09:52:36;;;;;;;4.40;0.90;;;;;;;25.10;40.73;101776.19;5015414;28;20471;-74
2023/07/07 09:55:12;;;;;;;4.90;1.30;;;;;;;25.08;38.99;101770.22;5015326;28;20435;-74
2023/07/07 09:57:42;;;;;;;4.50;0.83;;;;;;;25.09;39.83;101772.59;5014984;28;20467;-74
2023/07/07 10:00:15;;;;;;;5.20;1.10;;;;;;;25.16;39.45;101766.38;5015305;28;20440;-73
2023/07/07 10:02:44;;;;;;;4.57;0.87;;;;;;;25.16;39.12;101771.94;5015050;28;20463;-76
2023/07/07 10:05:12;;;;;;;4.07;0.87;;;;;;;25.19;40.52;101764.81;5015232;28;20502;-74
2023/07/07 10:07:40;;;;;;;4.40;0.90;;;;;;;25.19;39.02;101759.28;5014843;28;20440;-75
2023/07/07 10:10:13;;;;;;;6.60;1.27;;;;;;;25.29;38.91;101767.00;5014969;28;20472;-73
2023/07/07 10:12:40;;;;;;;4.53;0.70;;;;;;;25.27;38.24;101755.44;5014530;28;20851;-72
2023/07/07 10:15:31;;;;;;;4.40;0.90;;;;;;;25.34;39.33;101748.03;5014955;28;20451;-72
2023/07/07 10:18:03;;;;;;;6.13;0.80;;;;;;;25.43;40.45;101753.31;5014855;28;20831;-73
2023/07/07 10:20:31;;;;;;;5.17;1.10;;;;;;;25.49;41.33;101757.38;5014905;28;20548;-73
2023/07/07 10:22:57;;;;;;;5.43;1.03;;;;;;;25.57;41.81;101753.50;5014455;28;20495;-73
2023/07/07 10:25:27;;;;;;;4.30;0.70;;;;;;;25.66;41.74;101753.25;5014449;28;20977;-73
2023/07/07 10:27:55;;;;;;;5.00;1.13;;;;;;;25.77;42.73;101751.44;5014729;28;20440;-73
2023/07/07 10:30:22;;;;;;;4.60;1.10;;;;;;;25.80;38.38;101753.44;5014484;28;20534;-72
2023/07/07 10:32:49;;;;;;;5.03;0.90;;;;;;;25.81;41.69;101752.28;5014567;28;20495;-73
2023/07/07 10:35:19;;;;;;;4.57;0.90;;;;;;;25.72;40.33;101748.97;5014389;28;20534;-73
2023/07/07 10:37:46;;;;;;;5.00;1.00;;;;;;;25.80;40.82;101745.13;5014474;28;20990;-72
2023/07/07 10:40:21;;;;;;;4.63;1.00;;;;;;;26.03;39.54;101749.75;5014534;28;20443;-72
2023/07/07 10:42:52;;;;;;;4.43;0.93;;;;;;;26.07;36.43;101747.81;5014480;28;20871;-72
2023/07/07 10:45:19;;;;;;;4.20;0.90;;;;;;;26.04;40.77;101743.06;5014431;28;20433;-72
2023/07/07 10:47:45;;;;;;;6.23;1.27;;;;;;;26.23;40.06;101748.41;5014351;28;20531;-72
2023/07/07 10:50:15;;;;;;;5.00;1.20;;;;;;;26.41;37.99;101746.63;5014288;28;20616;-73
2023/07/07 10:53:02;;;;;;;4.67;1.20;;;;;;;26.58;37.59;101752.78;5014437;28;20535;-72
2023/07/07 10:55:35;;;;;;;4.20;0.80;;;;;;;26.65;39.87;101750.06;5013877;28;20448;-72
2023/07/07 10:58:21;;;;;;;4.77;1.00;;;;;;;26.73;38.13;101754.50;5013725;28;20464;-72
2023/07/07 11:01:02;;;;;;;5.53;1.13;;;;;;;26.85;38.82;101751.44;5014087;28;20424;-72
2023/07/07 11:04:10;;;;;;;4.70;0.93;;;;;;;27.01;38.77;101751.19;5013742;28;21021;-72
2023/07/07 11:06:46;;;;;;;4.40;0.97;;;;;;;27.07;36.98;101746.06;4994043;28;20462;-72
2023/07/07 11:09:26;;;;;;;4.20;0.90;;;;;;;27.20;36.39;101741.81;5013997;28;20424;-72
2023/07/07 11:12:01;;;;;;;5.53;1.10;;;;;;;27.28;36.13;101751.81;5013991;28;20460;-72
2023/07/07 11:14:42;;;;;;;4.67;1.00;;;;;;;27.45;36.18;101749.50;5013922;28;20458;-72
2023/07/07 11:17:21;;;;;;;5.63;1.50;;;;;;;27.31;34.37;101741.84;5013951;28;20463;-72
2023/07/07 11:20:16;;;;;;;4.77;1.60;;;;;;;27.41;34.11;101741.94;5013770;28;20550;-72
2023/07/07 11:23:01;;;;;;;4.80;1.13;;;;;;;27.59;33.64;101749.59;5012712;28;20542;-72
2023/07/07 11:25:34;;;;;;;4.10;1.00;;;;;;;27.94;34.02;101743.44;5013766;28;20440;-72
2023/07/07 11:28:08;;;;;;;4.07;0.93;;;;;;;28.31;33.15;101739.53;5013737;28;20863;-72
2023/07/07 11:30:47;;;;;;;4.80;1.40;;;;;;;28.70;31.71;101736.03;5013366;28;20559;-72
2023/07/07 11:33:31;;;;;;;4.80;1.10;;;;;;;29.18;32.83;101735.66;5013640;28;20526;-72
2023/07/07 11:36:13;;;;;;;4.40;1.07;;;;;;;29.67;31.61;101736.75;5013653;28;20435;-72